createdAt,value
2023-03-30T00:02:03.943Z,4.90
2023-03-30T00:07:08.895Z,5.80
2023-03-30T00:12:15.597Z,6.40
2023-03-30T00:17:19.634Z,6.10
2023-03-30T00:22:23.664Z,6.10
2023-03-30T00:27:27.793Z,5.70
2023-03-30T00:32:31.720Z,7.10
2023-03-30T00:37:37.801Z,4.40
2023-03-30T00:42:41.736Z,5.20
2023-03-30T00:47:50.836Z,4.80
2023-03-30T00:52:57.003Z,5.00
2023-03-30T00:58:02.126Z,6.50
2023-03-30T01:03:15.263Z,4.70
2023-03-30T01:08:20.719Z,4.70
2023-03-30T01:13:24.652Z,4.50
2023-03-30T01:18:39.726Z,6.00
2023-03-30T01:24:17.949Z,6.80
2023-03-30T01:29:44.694Z,5.70
2023-03-30T01:35:00.233Z,3.80
2023-03-30T01:40:15.111Z,3.60
2023-03-30T01:45:33.702Z,4.90
2023-03-30T01:50:42.678Z,3.70
2023-03-30T01:56:02.986Z,3.70
2023-03-30T02:01:08.350Z,4.40
2023-03-30T02:06:39.034Z,4.20
2023-03-30T02:11:46.606Z,4.40
2023-03-30T02:16:57.032Z,3.90
2023-03-30T02:22:02.034Z,4.80
2023-03-30T02:27:08.319Z,3.70
2023-03-30T02:32:37.802Z,3.00
2023-03-30T02:38:15.326Z,3.90
2023-03-30T02:43:31.331Z,3.30
2023-03-30T02:48:57.362Z,3.90
2023-03-30T02:54:18.191Z,3.80
2023-03-30T03:00:13.488Z,4.00
2023-03-30T03:05:18.122Z,3.00
2023-03-30T03:10:42.527Z,3.10
2023-03-30T03:15:49.903Z,3.20
2023-03-30T03:20:54.068Z,3.30
2023-03-30T03:26:00.662Z,3.20
2023-03-30T03:31:06.782Z,3.50
2023-03-30T03:36:12.603Z,4.90
2023-03-30T03:41:24.215Z,3.70
2023-03-30T03:46:28.536Z,3.20
2023-03-30T03:51:33.405Z,3.30
2023-03-30T03:56:37.273Z,4.00
2023-03-30T04:01:41.298Z,3.40
2023-03-30T04:06:45.813Z,3.80
2023-03-30T04:11:50.057Z,3.50
2023-03-30T04:17:12.078Z,3.20
2023-03-30T04:22:27.282Z,3.20
2023-03-30T04:27:58.131Z,2.60
2023-03-30T04:33:38.833Z,2.90
2023-03-30T04:38:59.074Z,3.30
2023-03-30T04:44:23.098Z,3.70
2023-03-30T04:49:49.335Z,2.80
2023-03-30T04:55:16.187Z,2.70
2023-03-30T05:00:29.738Z,3.00
2023-03-30T05:05:53.928Z,2.70
2023-03-30T05:11:22.215Z,2.60
2023-03-30T05:16:37.850Z,2.30
2023-03-30T05:22:02.306Z,2.60
2023-03-30T05:27:41.546Z,2.40
2023-03-30T05:33:02.909Z,3.90
2023-03-30T05:38:22.043Z,2.70
2023-03-30T05:43:55.280Z,2.80
2023-03-30T05:49:18.213Z,16.20
2023-03-30T05:54:48.441Z,5.00
2023-03-30T06:00:11.194Z,2.80
2023-03-30T06:05:22.301Z,3.60
2023-03-30T06:10:26.841Z,5.20
2023-03-30T06:15:32.100Z,2.50
2023-03-30T06:20:42.981Z,4.70
2023-03-30T06:25:53.617Z,3.20
2023-03-30T06:31:03.600Z,3.20
2023-03-30T06:36:13.393Z,3.80
2023-03-30T06:41:17.741Z,7.70
2023-03-30T06:46:22.834Z,6.60
2023-03-30T06:51:28.066Z,6.50
2023-03-30T06:56:33.216Z,2.30
2023-03-30T07:01:48.247Z,3.80
2023-03-30T07:07:28.562Z,4.60
2023-03-30T07:12:32.605Z,5.60
2023-03-30T07:17:37.381Z,5.50
2023-03-30T07:22:43.024Z,3.40
2023-03-30T07:27:48.386Z,6.70
2023-03-30T07:32:53.887Z,3.60
2023-03-30T07:38:03.360Z,3.00
2023-03-30T07:43:12.156Z,5.50
2023-03-30T07:48:16.912Z,5.20
2023-03-30T07:53:23.073Z,2.40
2023-03-30T07:58:29.361Z,5.50
2023-03-30T08:03:33.789Z,2.00
2023-03-30T08:08:41.524Z,8.40
2023-03-30T08:13:46.476Z,5.80
2023-03-30T08:18:50.264Z,2.90
2023-03-30T08:23:56.694Z,4.00
2023-03-30T08:29:00.909Z,4.40
2023-03-30T08:34:05.070Z,2.90
2023-03-30T08:39:09.303Z,10.30
2023-03-30T08:44:34.637Z,4.50
2023-03-30T08:49:56.557Z,5.20
2023-03-30T09:00:37.702Z,3.90
2023-03-30T09:05:51.957Z,7.00
2023-03-30T09:11:01.683Z,15.00
2023-03-30T09:16:48.117Z,3.60
2023-03-30T09:21:54.375Z,14.20
2023-03-30T09:27:09.584Z,135.80
2023-03-30T09:32:15.013Z,81.40
2023-03-30T09:37:19.485Z,59.80
2023-03-30T09:43:02.518Z,62.70
2023-03-30T09:48:09.308Z,45.10
2023-03-30T09:53:27.152Z,52.10
2023-03-30T09:58:35.274Z,46.70
2023-03-30T10:03:41.549Z,38.40
2023-03-30T10:08:56.996Z,33.70
2023-03-30T10:14:01.394Z,32.10
2023-03-30T10:19:18.162Z,34.60
2023-03-30T10:24:24.978Z,36.00
2023-03-30T10:29:30.253Z,32.40
2023-03-30T10:34:39.422Z,29.80
2023-03-30T10:39:47.555Z,32.40
2023-03-30T10:44:55.794Z,28.60
2023-03-30T10:50:08.648Z,32.00
2023-03-30T10:55:29.438Z,29.80
2023-03-30T11:00:48.779Z,31.10
2023-03-30T11:05:57.244Z,25.80
2023-03-30T11:11:01.885Z,27.00
2023-03-30T11:16:11.849Z,27.10
2023-03-30T11:21:18.457Z,24.90
2023-03-30T11:26:51.764Z,23.90
2023-03-30T11:32:16.992Z,22.30
2023-03-30T11:37:35.954Z,26.50
2023-03-30T11:42:40.296Z,24.60
2023-03-30T11:48:09.394Z,25.50
2023-03-30T11:53:25.385Z,25.20
2023-03-30T11:58:49.580Z,21.90
2023-03-30T12:04:11.477Z,24.80
2023-03-30T12:09:37.962Z,20.10
2023-03-30T12:15:00.611Z,19.30
2023-03-30T12:20:33.707Z,19.00
2023-03-30T12:26:01.142Z,26.60
2023-03-30T12:31:05.743Z,20.00
2023-03-30T12:36:26.540Z,20.30
2023-03-30T12:41:42.240Z,17.50
2023-03-30T12:47:24.651Z,17.10
2023-03-30T12:53:04.127Z,17.80
2023-03-30T12:58:08.312Z,17.50
2023-03-30T13:03:20.937Z,18.30
2023-03-30T13:08:40.665Z,15.20
2023-03-30T13:13:52.650Z,17.80
2023-03-30T13:18:56.681Z,17.40
2023-03-30T13:24:26.924Z,18.90
2023-03-30T13:29:31.967Z,16.90
2023-03-30T13:34:44.920Z,20.10
2023-03-30T13:40:05.328Z,14.90
2023-03-30T13:45:32.988Z,14.30
2023-03-30T13:50:38.944Z,11.90
2023-03-30T13:55:50.762Z,15.60
2023-03-30T14:01:02.085Z,13.60
2023-03-30T14:06:18.289Z,15.30
2023-03-30T14:11:26.820Z,12.00
2023-03-30T14:16:39.168Z,12.50
2023-03-30T14:21:45.524Z,17.40
2023-03-30T14:26:50.784Z,9.40
2023-03-30T14:32:07.410Z,13.70
2023-03-30T14:37:13.240Z,11.00
2023-03-30T14:42:20.732Z,9.50
2023-03-30T14:47:27.825Z,13.40
2023-03-30T14:52:38.256Z,11.70
2023-03-30T14:57:43.917Z,11.00
2023-03-30T15:02:54.863Z,10.60
2023-03-30T15:07:59.053Z,11.90
2023-03-30T15:13:04.540Z,8.60
2023-03-30T15:18:10.495Z,9.50
2023-03-30T15:23:14.739Z,13.70
2023-03-30T15:28:20.860Z,11.30
2023-03-30T15:33:40.196Z,9.50
2023-03-30T15:38:51.804Z,11.60
2023-03-30T15:43:58.873Z,9.40
2023-03-30T15:49:03.797Z,8.90
2023-03-30T15:54:18.432Z,13.60
2023-03-30T15:59:28.970Z,10.20
2023-03-30T16:04:33.350Z,10.00
2023-03-30T16:09:39.452Z,7.70
2023-03-30T16:14:45.522Z,13.20
2023-03-30T16:19:55.326Z,58.30
2023-03-30T16:25:02.876Z,113.00
2023-03-30T16:31:11.893Z,72.20
2023-03-30T16:36:20.205Z,83.50
2023-03-30T16:41:27.166Z,73.60
2023-03-30T16:46:35.241Z,68.40
2023-03-30T16:51:44.594Z,65.70
2023-03-30T16:56:52.055Z,53.20
2023-03-30T17:01:57.607Z,52.80
2023-03-30T17:07:01.836Z,51.60
2023-03-30T17:12:06.649Z,50.40
2023-03-30T17:17:12.904Z,50.50
2023-03-30T17:22:18.016Z,50.40
2023-03-30T17:27:22.377Z,48.80
2023-03-30T18:37:04.258Z,21.50
2023-03-30T18:42:10.422Z,20.50
2023-03-30T18:47:17.415Z,29.00
2023-03-30T18:52:23.944Z,21.10
2023-03-30T18:57:30.250Z,23.60
2023-03-30T19:02:38.298Z,23.00
2023-03-30T19:07:44.818Z,26.20
2023-03-30T19:12:54.487Z,51.60
2023-03-30T19:18:01.380Z,22.80
2023-03-30T19:28:21.813Z,19.10
2023-03-30T19:33:28.000Z,21.50
2023-03-30T19:38:34.630Z,18.40
2023-03-30T19:43:40.780Z,19.90
2023-03-30T19:48:46.236Z,17.40
2023-03-30T19:53:53.858Z,17.20
2023-03-30T19:58:59.402Z,18.60
2023-03-30T20:04:07.731Z,17.60
2023-03-30T20:09:14.522Z,15.50
2023-03-30T20:14:20.866Z,18.40
2023-03-30T20:19:29.651Z,15.60
2023-03-30T20:24:34.662Z,15.00
2023-03-30T20:29:38.648Z,15.70
2023-03-30T20:34:46.341Z,15.50
2023-03-30T20:39:51.194Z,17.20
2023-03-30T20:44:56.161Z,15.70
2023-03-30T20:50:00.305Z,17.00
2023-03-30T20:55:05.246Z,17.90
2023-03-30T21:00:10.189Z,18.50
2023-03-30T21:05:14.044Z,25.00
2023-03-30T21:10:18.077Z,20.80
2023-03-30T21:15:22.100Z,19.50
2023-03-30T21:20:26.221Z,23.10
2023-03-30T21:25:31.498Z,20.20
2023-03-30T21:30:36.136Z,18.00
2023-03-30T21:35:40.228Z,17.70
2023-03-30T21:41:05.226Z,20.30
2023-03-30T21:46:16.159Z,17.20
2023-03-30T21:51:23.206Z,15.30
2023-03-30T21:56:29.710Z,19.60
2023-03-30T22:01:33.817Z,16.30
2023-03-30T22:06:37.929Z,14.40
2023-03-30T22:11:41.760Z,15.70
2023-03-30T22:16:47.157Z,20.80
2023-03-30T22:21:52.335Z,14.20
2023-03-30T22:26:56.298Z,17.00
2023-03-30T22:32:00.346Z,14.30
2023-03-30T22:37:04.569Z,14.40
2023-03-30T22:42:08.971Z,11.30
2023-03-30T22:47:13.371Z,27.00
2023-03-30T22:52:17.491Z,12.90
2023-03-30T22:57:21.865Z,12.20
2023-03-30T23:02:25.788Z,11.50
2023-03-30T23:07:31.641Z,19.50
2023-03-30T23:12:35.669Z,12.10
2023-03-30T23:17:40.256Z,11.30
2023-03-30T23:22:44.648Z,11.10
2023-03-30T23:27:48.788Z,9.80
2023-03-30T23:32:52.621Z,8.80
2023-03-30T23:37:56.798Z,8.40
2023-03-30T23:43:01.323Z,8.10
2023-03-30T23:48:05.824Z,10.10
2023-03-30T23:53:09.893Z,8.70
2023-03-30T23:58:14.023Z,7.60
